sensor_id;sensor_type;location;lat;lon;timestamp;temperature;humidity
29709;DHT22;16621;47.158;7.592;2022-08-05T00:02:31;23.60;93.70
29709;DHT22;16621;47.158;7.592;2022-08-05T00:05:19;23.60;93.80
29709;DHT22;16621;47.158;7.592;2022-08-05T00:08:15;23.70;93.90
29709;DHT22;16621;47.158;7.592;2022-08-05T00:11:01;23.70;94.40
29709;DHT22;16621;47.158;7.592;2022-08-05T00:13:43;23.60;94.80
29709;DHT22;16621;47.158;7.592;2022-08-05T00:16:28;23.60;95.80
29709;DHT22;16621;47.158;7.592;2022-08-05T00:19:14;23.60;95.40
29709;DHT22;16621;47.158;7.592;2022-08-05T00:22:00;23.60;95.50
29709;DHT22;16621;47.158;7.592;2022-08-05T00:24:45;23.50;95.40
29709;DHT22;16621;47.158;7.592;2022-08-05T00:27:33;23.50;95.10
29709;DHT22;16621;47.158;7.592;2022-08-05T00:30:18;23.50;95.50
29709;DHT22;16621;47.158;7.592;2022-08-05T00:33:04;23.40;95.40
29709;DHT22;16621;47.158;7.592;2022-08-05T00:35:53;23.40;94.50
29709;DHT22;16621;47.158;7.592;2022-08-05T00:38:40;23.40;94.60
29709;DHT22;16621;47.158;7.592;2022-08-05T00:41:35;23.40;94.90
29709;DHT22;16621;47.158;7.592;2022-08-05T00:44:24;23.40;94.60
29709;DHT22;16621;47.158;7.592;2022-08-05T00:47:12;23.40;94.80
29709;DHT22;16621;47.158;7.592;2022-08-05T00:50:01;23.30;95.40
29709;DHT22;16621;47.158;7.592;2022-08-05T00:52:50;23.30;95.60
29709;DHT22;16621;47.158;7.592;2022-08-05T00:55:35;23.30;95.00
29709;DHT22;16621;47.158;7.592;2022-08-05T00:58:19;23.30;95.30
29709;DHT22;16621;47.158;7.592;2022-08-05T01:01:06;23.20;95.50
29709;DHT22;16621;47.158;7.592;2022-08-05T01:03:57;23.20;95.90
29709;DHT22;16621;47.158;7.592;2022-08-05T01:06:40;23.10;95.80
29709;DHT22;16621;47.158;7.592;2022-08-05T01:09:21;23.10;96.40
29709;DHT22;16621;47.158;7.592;2022-08-05T01:12:02;23.10;96.40
29709;DHT22;16621;47.158;7.592;2022-08-05T01:14:51;23.10;96.80
29709;DHT22;16621;47.158;7.592;2022-08-05T01:17:42;23.10;97.20
29709;DHT22;16621;47.158;7.592;2022-08-05T01:20:39;23.00;97.40
29709;DHT22;16621;47.158;7.592;2022-08-05T01:23:39;23.00;97.30
29709;DHT22;16621;47.158;7.592;2022-08-05T01:26:28;22.90;98.30
29709;DHT22;16621;47.158;7.592;2022-08-05T01:29:11;22.90;97.90
29709;DHT22;16621;47.158;7.592;2022-08-05T01:31:59;22.80;97.90
29709;DHT22;16621;47.158;7.592;2022-08-05T01:34:47;22.80;97.90
29709;DHT22;16621;47.158;7.592;2022-08-05T01:37:43;22.80;98.00
29709;DHT22;16621;47.158;7.592;2022-08-05T01:40:22;22.70;98.50
29709;DHT22;16621;47.158;7.592;2022-08-05T01:43:01;22.60;98.10
29709;DHT22;16621;47.158;7.592;2022-08-05T01:45:45;22.60;97.90
29709;DHT22;16621;47.158;7.592;2022-08-05T01:48:34;22.60;98.10
29709;DHT22;16621;47.158;7.592;2022-08-05T01:51:19;22.60;98.80
29709;DHT22;16621;47.158;7.592;2022-08-05T01:54:06;22.60;98.50
29709;DHT22;16621;47.158;7.592;2022-08-05T01:56:57;22.60;98.60
29709;DHT22;16621;47.158;7.592;2022-08-05T01:59:36;22.60;98.50
29709;DHT22;16621;47.158;7.592;2022-08-05T02:02:27;22.50;98.70
29709;DHT22;16621;47.158;7.592;2022-08-05T02:05:12;22.50;99.00
29709;DHT22;16621;47.158;7.592;2022-08-05T02:07:56;22.40;99.10
29709;DHT22;16621;47.158;7.592;2022-08-05T02:10:50;22.40;99.60
29709;DHT22;16621;47.158;7.592;2022-08-05T02:13:46;22.30;99.90
29709;DHT22;16621;47.158;7.592;2022-08-05T02:16:26;22.30;99.90
29709;DHT22;16621;47.158;7.592;2022-08-05T02:19:07;22.30;99.90
29709;DHT22;16621;47.158;7.592;2022-08-05T02:21:58;22.20;99.90
29709;DHT22;16621;47.158;7.592;2022-08-05T02:24:45;22.10;99.90
29709;DHT22;16621;47.158;7.592;2022-08-05T02:27:26;22.00;99.90
29709;DHT22;16621;47.158;7.592;2022-08-05T02:30:07;22.00;99.90
29709;DHT22;16621;47.158;7.592;2022-08-05T02:32:50;21.90;99.90
29709;DHT22;16621;47.158;7.592;2022-08-05T02:35:30;21.80;99.90
29709;DHT22;16621;47.158;7.592;2022-08-05T02:38:11;21.80;99.90
29709;DHT22;16621;47.158;7.592;2022-08-05T02:41:03;21.70;99.90
29709;DHT22;16621;47.158;7.592;2022-08-05T02:43:51;21.60;99.90
29709;DHT22;16621;47.158;7.592;2022-08-05T02:46:38;21.60;99.90
29709;DHT22;16621;47.158;7.592;2022-08-05T02:49:24;21.50;99.90
29709;DHT22;16621;47.158;7.592;2022-08-05T02:52:06;21.50;99.90
29709;DHT22;16621;47.158;7.592;2022-08-05T02:54:54;21.40;99.90
29709;DHT22;16621;47.158;7.592;2022-08-05T02:57:34;21.40;99.90
29709;DHT22;16621;47.158;7.592;2022-08-05T03:00:21;21.30;99.90
29709;DHT22;16621;47.158;7.592;2022-08-05T03:03:07;21.30;99.90
29709;DHT22;16621;47.158;7.592;2022-08-05T03:05:49;21.20;99.90
29709;DHT22;16621;47.158;7.592;2022-08-05T03:08:36;21.20;99.90
29709;DHT22;16621;47.158;7.592;2022-08-05T03:11:24;21.10;99.90
29709;DHT22;16621;47.158;7.592;2022-08-05T03:14:10;21.10;99.90
29709;DHT22;16621;47.158;7.592;2022-08-05T03:16:52;21.10;99.90
29709;DHT22;16621;47.158;7.592;2022-08-05T03:19:37;21.00;99.90
29709;DHT22;16621;47.158;7.592;2022-08-05T03:22:21;21.00;99.90
29709;DHT22;16621;47.158;7.592;2022-08-05T03:25:07;20.90;99.90
29709;DHT22;16621;47.158;7.592;2022-08-05T03:27:52;20.90;99.90
29709;DHT22;16621;47.158;7.592;2022-08-05T03:30:31;20.90;99.90
29709;DHT22;16621;47.158;7.592;2022-08-05T03:33:12;21.00;99.90
29709;DHT22;16621;47.158;7.592;2022-08-05T03:35:58;21.00;99.90
29709;DHT22;16621;47.158;7.592;2022-08-05T03:38:47;21.00;99.90
29709;DHT22;16621;47.158;7.592;2022-08-05T03:41:32;21.00;99.90
29709;DHT22;16621;47.158;7.592;2022-08-05T03:44:20;21.00;99.90
29709;DHT22;16621;47.158;7.592;2022-08-05T03:47:05;21.00;99.90
29709;DHT22;16621;47.158;7.592;2022-08-05T03:49:52;21.00;99.90
29709;DHT22;16621;47.158;7.592;2022-08-05T03:52:40;21.00;99.90
29709;DHT22;16621;47.158;7.592;2022-08-05T03:55:21;21.00;99.90
29709;DHT22;16621;47.158;7.592;2022-08-05T03:58:05;20.90;99.90
29709;DHT22;16621;47.158;7.592;2022-08-05T04:00:48;20.90;99.90
29709;DHT22;16621;47.158;7.592;2022-08-05T04:03:31;20.90;99.90
29709;DHT22;16621;47.158;7.592;2022-08-05T04:06:19;20.90;99.90
29709;DHT22;16621;47.158;7.592;2022-08-05T04:09:03;21.00;99.90
29709;DHT22;16621;47.158;7.592;2022-08-05T04:11:48;20.90;99.90
29709;DHT22;16621;47.158;7.592;2022-08-05T04:14:36;20.90;99.90
29709;DHT22;16621;47.158;7.592;2022-08-05T04:17:23;20.90;99.90
29709;DHT22;16621;47.158;7.592;2022-08-05T04:20:02;20.90;99.90
29709;DHT22;16621;47.158;7.592;2022-08-05T04:22:41;20.90;99.90
29709;DHT22;16621;47.158;7.592;2022-08-05T04:25:22;20.90;99.90
29709;DHT22;16621;47.158;7.592;2022-08-05T04:28:06;20.90;99.90
29709;DHT22;16621;47.158;7.592;2022-08-05T04:30:48;21.00;99.90
29709;DHT22;16621;47.158;7.592;2022-08-05T04:33:29;21.00;99.90
29709;DHT22;16621;47.158;7.592;2022-08-05T04:36:09;21.00;99.90
29709;DHT22;16621;47.158;7.592;2022-08-05T04:38:55;21.00;99.90
29709;DHT22;16621;47.158;7.592;2022-08-05T04:41:52;21.00;99.90
29709;DHT22;16621;47.158;7.592;2022-08-05T04:44:38;21.00;99.90
29709;DHT22;16621;47.158;7.592;2022-08-05T04:47:24;21.00;99.90
29709;DHT22;16621;47.158;7.592;2022-08-05T04:50:10;21.00;99.90
29709;DHT22;16621;47.158;7.592;2022-08-05T04:52:56;21.00;99.90
29709;DHT22;16621;47.158;7.592;2022-08-05T04:55:40;21.00;99.90
29709;DHT22;16621;47.158;7.592;2022-08-05T04:58:22;21.00;99.90
29709;DHT22;16621;47.158;7.592;2022-08-05T05:01:06;21.00;99.90
29709;DHT22;16621;47.158;7.592;2022-08-05T05:03:54;21.00;99.90
29709;DHT22;16621;47.158;7.592;2022-08-05T05:06:39;21.10;99.90
29709;DHT22;16621;47.158;7.592;2022-08-05T05:09:19;21.10;99.90
29709;DHT22;16621;47.158;7.592;2022-08-05T05:12:06;21.20;99.90
29709;DHT22;16621;47.158;7.592;2022-08-05T05:14:47;21.10;99.90
29709;DHT22;16621;47.158;7.592;2022-08-05T05:17:37;21.20;99.90
29709;DHT22;16621;47.158;7.592;2022-08-05T05:20:17;21.10;99.90
29709;DHT22;16621;47.158;7.592;2022-08-05T05:23:02;21.20;99.90
29709;DHT22;16621;47.158;7.592;2022-08-05T05:25:48;21.20;99.90
29709;DHT22;16621;47.158;7.592;2022-08-05T05:28:33;21.30;99.90
29709;DHT22;16621;47.158;7.592;2022-08-05T05:31:14;21.30;99.90
29709;DHT22;16621;47.158;7.592;2022-08-05T05:33:53;21.40;99.90
29709;DHT22;16621;47.158;7.592;2022-08-05T05:36:41;21.40;99.90
29709;DHT22;16621;47.158;7.592;2022-08-05T05:39:28;21.50;99.90
29709;DHT22;16621;47.158;7.592;2022-08-05T05:42:10;21.50;99.90
29709;DHT22;16621;47.158;7.592;2022-08-05T05:44:48;21.50;99.90
29709;DHT22;16621;47.158;7.592;2022-08-05T05:47:48;21.60;99.90
29709;DHT22;16621;47.158;7.592;2022-08-05T05:50:32;21.70;99.90
29709;DHT22;16621;47.158;7.592;2022-08-05T05:53:13;21.80;99.90
29709;DHT22;16621;47.158;7.592;2022-08-05T05:55:54;21.90;99.90
29709;DHT22;16621;47.158;7.592;2022-08-05T05:58:38;22.00;99.90
29709;DHT22;16621;47.158;7.592;2022-08-05T06:01:23;22.00;99.90
29709;DHT22;16621;47.158;7.592;2022-08-05T06:04:10;22.10;99.90
29709;DHT22;16621;47.158;7.592;2022-08-05T06:06:53;22.20;99.90
29709;DHT22;16621;47.158;7.592;2022-08-05T06:09:39;22.30;99.90
29709;DHT22;16621;47.158;7.592;2022-08-05T06:12:24;22.40;99.90
29709;DHT22;16621;47.158;7.592;2022-08-05T06:15:09;22.50;99.90
29709;DHT22;16621;47.158;7.592;2022-08-05T06:17:49;22.60;99.90
29709;DHT22;16621;47.158;7.592;2022-08-05T06:20:52;22.80;99.90
29709;DHT22;16621;47.158;7.592;2022-08-05T06:23:39;23.00;99.90
29709;DHT22;16621;47.158;7.592;2022-08-05T06:26:24;23.20;99.90
29709;DHT22;16621;47.158;7.592;2022-08-05T06:29:09;23.30;99.90
29709;DHT22;16621;47.158;7.592;2022-08-05T06:31:50;23.60;99.90
29709;DHT22;16621;47.158;7.592;2022-08-05T06:34:31;23.80;99.90
29709;DHT22;16621;47.158;7.592;2022-08-05T06:37:13;24.00;99.90
29709;DHT22;16621;47.158;7.592;2022-08-05T06:39:55;24.30;99.90
29709;DHT22;16621;47.158;7.592;2022-08-05T06:42:40;24.50;99.90
29709;DHT22;16621;47.158;7.592;2022-08-05T06:45:24;24.90;99.90
29709;DHT22;16621;47.158;7.592;2022-08-05T06:48:08;25.30;99.90
29709;DHT22;16621;47.158;7.592;2022-08-05T06:50:55;25.70;99.90
29709;DHT22;16621;47.158;7.592;2022-08-05T06:53:37;26.00;99.90
29709;DHT22;16621;47.158;7.592;2022-08-05T06:56:20;26.10;99.90
29709;DHT22;16621;47.158;7.592;2022-08-05T06:59:10;26.10;99.70
29709;DHT22;16621;47.158;7.592;2022-08-05T07:01:56;25.80;99.90
29709;DHT22;16621;47.158;7.592;2022-08-05T07:04:40;25.60;99.90
29709;DHT22;16621;47.158;7.592;2022-08-05T07:07:24;25.40;99.90
29709;DHT22;16621;47.158;7.592;2022-08-05T07:10:10;25.30;99.90
29709;DHT22;16621;47.158;7.592;2022-08-05T07:12:56;25.60;99.90
29709;DHT22;16621;47.158;7.592;2022-08-05T07:15:52;26.00;99.90
29709;DHT22;16621;47.158;7.592;2022-08-05T07:18:48;26.70;99.90
29709;DHT22;16621;47.158;7.592;2022-08-05T07:21:31;26.90;98.60
29709;DHT22;16621;47.158;7.592;2022-08-05T07:24:11;26.50;98.30
29709;DHT22;16621;47.158;7.592;2022-08-05T07:26:54;26.10;97.30
29709;DHT22;16621;47.158;7.592;2022-08-05T07:29:36;25.70;98.50
29709;DHT22;16621;47.158;7.592;2022-08-05T07:32:17;25.40;99.50
29709;DHT22;16621;47.158;7.592;2022-08-05T07:34:58;25.40;99.90
29709;DHT22;16621;47.158;7.592;2022-08-05T07:37:41;25.80;99.90
29709;DHT22;16621;47.158;7.592;2022-08-05T07:40:27;26.80;98.80
29709;DHT22;16621;47.158;7.592;2022-08-05T07:43:09;27.90;97.90
29709;DHT22;16621;47.158;7.592;2022-08-05T07:45:55;28.80;95.70
29709;DHT22;16621;47.158;7.592;2022-08-05T07:48:42;29.50;96.10
29709;DHT22;16621;47.158;7.592;2022-08-05T07:51:27;30.00;93.60
29709;DHT22;16621;47.158;7.592;2022-08-05T07:54:24;30.50;91.70
29709;DHT22;16621;47.158;7.592;2022-08-05T07:57:05;30.60;91.70
29709;DHT22;16621;47.158;7.592;2022-08-05T07:59:44;31.10;90.50
29709;DHT22;16621;47.158;7.592;2022-08-05T08:02:26;31.30;91.90
29709;DHT22;16621;47.158;7.592;2022-08-05T08:05:05;31.30;87.70
29709;DHT22;16621;47.158;7.592;2022-08-05T08:07:48;31.30;88.40
29709;DHT22;16621;47.158;7.592;2022-08-05T08:10:30;31.20;89.00
29709;DHT22;16621;47.158;7.592;2022-08-05T08:13:09;31.30;88.70
29709;DHT22;16621;47.158;7.592;2022-08-05T08:15:52;31.40;88.20
29709;DHT22;16621;47.158;7.592;2022-08-05T08:18:37;31.60;86.80
29709;DHT22;16621;47.158;7.592;2022-08-05T08:21:22;31.70;86.60
29709;DHT22;16621;47.158;7.592;2022-08-05T08:24:07;31.70;86.90
29709;DHT22;16621;47.158;7.592;2022-08-05T08:26:47;31.70;85.10
29709;DHT22;16621;47.158;7.592;2022-08-05T08:29:28;31.50;87.70
29709;DHT22;16621;47.158;7.592;2022-08-05T08:32:08;31.30;88.50
29709;DHT22;16621;47.158;7.592;2022-08-05T08:34:48;31.20;91.00
29709;DHT22;16621;47.158;7.592;2022-08-05T08:37:33;30.70;88.50
29709;DHT22;16621;47.158;7.592;2022-08-05T08:40:23;30.50;89.20
29709;DHT22;16621;47.158;7.592;2022-08-05T08:43:11;30.60;88.40
29709;DHT22;16621;47.158;7.592;2022-08-05T08:45:57;30.50;86.70
29709;DHT22;16621;47.158;7.592;2022-08-05T08:48:38;30.70;88.20
29709;DHT22;16621;47.158;7.592;2022-08-05T08:51:20;30.70;87.50
29709;DHT22;16621;47.158;7.592;2022-08-05T08:54:01;30.50;86.90
29709;DHT22;16621;47.158;7.592;2022-08-05T08:56:46;30.40;84.10
29709;DHT22;16621;47.158;7.592;2022-08-05T08:59:34;30.50;86.30
29709;DHT22;16621;47.158;7.592;2022-08-05T09:02:21;30.60;84.90
29709;DHT22;16621;47.158;7.592;2022-08-05T09:05:10;30.70;83.20
29709;DHT22;16621;47.158;7.592;2022-08-05T09:07:57;30.90;84.50
29709;DHT22;16621;47.158;7.592;2022-08-05T09:10:42;30.90;90.00
29709;DHT22;16621;47.158;7.592;2022-08-05T09:13:27;31.00;83.00
29709;DHT22;16621;47.158;7.592;2022-08-05T09:16:11;31.00;80.90
29709;DHT22;16621;47.158;7.592;2022-08-05T09:18:53;30.70;82.70
29709;DHT22;16621;47.158;7.592;2022-08-05T09:21:36;30.80;85.10
29709;DHT22;16621;47.158;7.592;2022-08-05T09:24:19;30.90;83.80
29709;DHT22;16621;47.158;7.592;2022-08-05T09:27:06;31.00;81.30
29709;DHT22;16621;47.158;7.592;2022-08-05T09:29:43;31.10;84.20
29709;DHT22;16621;47.158;7.592;2022-08-05T09:32:40;31.40;79.30
29709;DHT22;16621;47.158;7.592;2022-08-05T09:35:18;31.30;77.60
29709;DHT22;16621;47.158;7.592;2022-08-05T09:38:00;31.30;78.00
29709;DHT22;16621;47.158;7.592;2022-08-05T09:40:43;31.40;81.70
29709;DHT22;16621;47.158;7.592;2022-08-05T09:43:35;31.80;84.50
29709;DHT22;16621;47.158;7.592;2022-08-05T09:46:27;32.00;79.10
29709;DHT22;16621;47.158;7.592;2022-08-05T09:49:09;32.10;76.30
29709;DHT22;16621;47.158;7.592;2022-08-05T09:51:58;32.40;79.30
29709;DHT22;16621;47.158;7.592;2022-08-05T09:57:41;32.50;75.70
29709;DHT22;16621;47.158;7.592;2022-08-05T10:00:20;32.50;74.00
29709;DHT22;16621;47.158;7.592;2022-08-05T10:02:58;32.60;74.10
29709;DHT22;16621;47.158;7.592;2022-08-05T10:05:44;32.70;75.40
29709;DHT22;16621;47.158;7.592;2022-08-05T10:08:29;32.70;73.10
29709;DHT22;16621;47.158;7.592;2022-08-05T10:11:12;32.90;72.30
29709;DHT22;16621;47.158;7.592;2022-08-05T10:13:53;33.10;75.40
29709;DHT22;16621;47.158;7.592;2022-08-05T10:16:45;33.10;70.50
29709;DHT22;16621;47.158;7.592;2022-08-05T10:19:30;33.30;74.20
29709;DHT22;16621;47.158;7.592;2022-08-05T10:22:15;33.40;74.30
29709;DHT22;16621;47.158;7.592;2022-08-05T10:24:49;33.50;74.30
29709;DHT22;16621;47.158;7.592;2022-08-05T10:27:35;33.50;70.70
29709;DHT22;16621;47.158;7.592;2022-08-05T10:30:16;33.50;68.20
29709;DHT22;16621;47.158;7.592;2022-08-05T10:33:08;33.40;67.60
29709;DHT22;16621;47.158;7.592;2022-08-05T10:35:58;33.30;69.60
29709;DHT22;16621;47.158;7.592;2022-08-05T10:38:38;33.00;67.20
29709;DHT22;16621;47.158;7.592;2022-08-05T10:41:19;32.90;67.10
29709;DHT22;16621;47.158;7.592;2022-08-05T10:46:53;32.70;68.30
29709;DHT22;16621;47.158;7.592;2022-08-05T10:49:31;32.60;70.40
29709;DHT22;16621;47.158;7.592;2022-08-05T10:52:11;32.40;70.90
29709;DHT22;16621;47.158;7.592;2022-08-05T10:57:35;32.20;68.50
29709;DHT22;16621;47.158;7.592;2022-08-05T11:00:27;32.30;72.20
29709;DHT22;16621;47.158;7.592;2022-08-05T11:03:18;32.70;68.10
29709;DHT22;16621;47.158;7.592;2022-08-05T11:06:10;32.90;66.90
29709;DHT22;16621;47.158;7.592;2022-08-05T11:09:12;32.90;68.00
29709;DHT22;16621;47.158;7.592;2022-08-05T11:11:54;32.90;65.30
29709;DHT22;16621;47.158;7.592;2022-08-05T11:14:43;33.00;66.00
29709;DHT22;16621;47.158;7.592;2022-08-05T11:17:28;33.10;66.40
29709;DHT22;16621;47.158;7.592;2022-08-05T11:20:33;33.10;64.00
29709;DHT22;16621;47.158;7.592;2022-08-05T11:23:37;33.10;67.10
29709;DHT22;16621;47.158;7.592;2022-08-05T11:28:58;32.50;65.80
29709;DHT22;16621;47.158;7.592;2022-08-05T11:31:44;32.20;65.30
29709;DHT22;16621;47.158;7.592;2022-08-05T11:34:42;31.90;66.60
29709;DHT22;16621;47.158;7.592;2022-08-05T11:40:59;31.70;71.20
29709;DHT22;16621;47.158;7.592;2022-08-05T11:43:51;31.60;72.10
29709;DHT22;16621;47.158;7.592;2022-08-05T11:49:14;31.50;72.70
29709;DHT22;16621;47.158;7.592;2022-08-05T11:52:00;31.50;76.70
29709;DHT22;16621;47.158;7.592;2022-08-05T11:54:51;31.50;76.90
29709;DHT22;16621;47.158;7.592;2022-08-05T11:57:39;31.50;72.90
29709;DHT22;16621;47.158;7.592;2022-08-05T12:00:36;31.40;74.00
29709;DHT22;16621;47.158;7.592;2022-08-05T12:03:23;31.40;75.00
29709;DHT22;16621;47.158;7.592;2022-08-05T12:06:11;31.50;72.80
29709;DHT22;16621;47.158;7.592;2022-08-05T12:08:59;31.50;75.50
29709;DHT22;16621;47.158;7.592;2022-08-05T12:11:49;31.50;68.20
29709;DHT22;16621;47.158;7.592;2022-08-05T12:17:37;31.80;72.00
29709;DHT22;16621;47.158;7.592;2022-08-05T12:20:28;32.30;69.20
29709;DHT22;16621;47.158;7.592;2022-08-05T12:23:16;32.80;70.00
29709;DHT22;16621;47.158;7.592;2022-08-05T12:26:06;33.10;69.40
29709;DHT22;16621;47.158;7.592;2022-08-05T12:28:50;33.50;68.70
29709;DHT22;16621;47.158;7.592;2022-08-05T12:31:40;33.70;64.20
29709;DHT22;16621;47.158;7.592;2022-08-05T12:34:28;33.80;61.60
29709;DHT22;16621;47.158;7.592;2022-08-05T12:37:18;33.80;65.50
29709;DHT22;16621;47.158;7.592;2022-08-05T12:40:08;33.90;64.50
29709;DHT22;16621;47.158;7.592;2022-08-05T12:42:56;33.80;62.30
29709;DHT22;16621;47.158;7.592;2022-08-05T12:45:53;34.00;64.60
29709;DHT22;16621;47.158;7.592;2022-08-05T12:48:40;34.10;62.00
29709;DHT22;16621;47.158;7.592;2022-08-05T12:51:27;34.00;61.30
29709;DHT22;16621;47.158;7.592;2022-08-05T12:54:17;33.80;64.10
29709;DHT22;16621;47.158;7.592;2022-08-05T12:56:58;33.80;61.60
29709;DHT22;16621;47.158;7.592;2022-08-05T12:59:52;33.70;62.20
29709;DHT22;16621;47.158;7.592;2022-08-05T13:02:34;33.70;61.40
29709;DHT22;16621;47.158;7.592;2022-08-05T13:05:23;33.90;66.00
29709;DHT22;16621;47.158;7.592;2022-08-05T13:08:15;33.90;63.10
29709;DHT22;16621;47.158;7.592;2022-08-05T13:10:59;34.00;59.00
29709;DHT22;16621;47.158;7.592;2022-08-05T13:13:48;34.00;62.00
29709;DHT22;16621;47.158;7.592;2022-08-05T13:17:04;34.20;60.30
29709;DHT22;16621;47.158;7.592;2022-08-05T13:19:24;34.10;58.70
29709;DHT22;16621;47.158;7.592;2022-08-05T13:22:09;34.20;59.00
29709;DHT22;16621;47.158;7.592;2022-08-05T13:24:52;34.20;62.20
29709;DHT22;16621;47.158;7.592;2022-08-05T13:27:47;34.40;63.10
29709;DHT22;16621;47.158;7.592;2022-08-05T13:30:35;34.50;61.10
29709;DHT22;16621;47.158;7.592;2022-08-05T13:33:25;34.50;56.60
29709;DHT22;16621;47.158;7.592;2022-08-05T13:36:13;34.40;56.90
29709;DHT22;16621;47.158;7.592;2022-08-05T13:38:59;34.20;57.60
29709;DHT22;16621;47.158;7.592;2022-08-05T13:41:46;34.20;58.80
29709;DHT22;16621;47.158;7.592;2022-08-05T13:44:33;34.40;57.90
29709;DHT22;16621;47.158;7.592;2022-08-05T13:47:21;34.40;57.70
29709;DHT22;16621;47.158;7.592;2022-08-05T13:50:09;34.50;59.20
29709;DHT22;16621;47.158;7.592;2022-08-05T13:53:01;34.40;58.40
29709;DHT22;16621;47.158;7.592;2022-08-05T13:55:49;34.40;57.60
29709;DHT22;16621;47.158;7.592;2022-08-05T13:58:40;34.40;59.70
29709;DHT22;16621;47.158;7.592;2022-08-05T14:01:28;34.50;58.10
29709;DHT22;16621;47.158;7.592;2022-08-05T14:04:19;34.40;57.40
29709;DHT22;16621;47.158;7.592;2022-08-05T14:07:21;34.30;57.00
29709;DHT22;16621;47.158;7.592;2022-08-05T14:10:12;34.20;57.40
29709;DHT22;16621;47.158;7.592;2022-08-05T14:12:51;34.20;56.80
29709;DHT22;16621;47.158;7.592;2022-08-05T14:15:37;34.30;57.60
29709;DHT22;16621;47.158;7.592;2022-08-05T14:18:22;34.20;56.60
29709;DHT22;16621;47.158;7.592;2022-08-05T14:21:04;34.40;57.50
29709;DHT22;16621;47.158;7.592;2022-08-05T14:23:51;34.40;57.30
29709;DHT22;16621;47.158;7.592;2022-08-05T14:26:46;34.50;57.60
29709;DHT22;16621;47.158;7.592;2022-08-05T14:29:31;34.60;56.70
29709;DHT22;16621;47.158;7.592;2022-08-05T14:34:50;34.70;56.60
29709;DHT22;16621;47.158;7.592;2022-08-05T14:37:35;35.10;57.70
29709;DHT22;16621;47.158;7.592;2022-08-05T14:40:22;35.50;55.30
29709;DHT22;16621;47.158;7.592;2022-08-05T14:43:09;35.80;54.50
29709;DHT22;16621;47.158;7.592;2022-08-05T14:45:58;35.60;58.90
29709;DHT22;16621;47.158;7.592;2022-08-05T14:48:44;34.90;63.60
29709;DHT22;16621;47.158;7.592;2022-08-05T14:51:30;34.30;64.50
29709;DHT22;16621;47.158;7.592;2022-08-05T14:54:17;33.60;57.50
29709;DHT22;16621;47.158;7.592;2022-08-05T14:57:02;33.30;61.60
29709;DHT22;16621;47.158;7.592;2022-08-05T14:59:45;32.90;59.10
29709;DHT22;16621;47.158;7.592;2022-08-05T15:02:27;32.70;60.70
29709;DHT22;16621;47.158;7.592;2022-08-05T15:05:12;32.60;59.70
29709;DHT22;16621;47.158;7.592;2022-08-05T15:07:53;32.50;59.00
29709;DHT22;16621;47.158;7.592;2022-08-05T15:10:39;32.30;63.80
29709;DHT22;16621;47.158;7.592;2022-08-05T15:13:20;32.20;64.50
29709;DHT22;16621;47.158;7.592;2022-08-05T15:16:05;32.10;66.10
29709;DHT22;16621;47.158;7.592;2022-08-05T15:18:47;32.00;68.80
29709;DHT22;16621;47.158;7.592;2022-08-05T15:21:32;32.00;66.50
29709;DHT22;16621;47.158;7.592;2022-08-05T15:24:14;32.00;67.90
29709;DHT22;16621;47.158;7.592;2022-08-05T15:26:59;31.90;64.80
29709;DHT22;16621;47.158;7.592;2022-08-05T15:29:41;31.80;67.60
29709;DHT22;16621;47.158;7.592;2022-08-05T15:32:26;31.80;63.40
29709;DHT22;16621;47.158;7.592;2022-08-05T15:35:11;31.70;64.00
29709;DHT22;16621;47.158;7.592;2022-08-05T15:37:57;31.70;67.00
29709;DHT22;16621;47.158;7.592;2022-08-05T15:40:37;31.60;66.90
29709;DHT22;16621;47.158;7.592;2022-08-05T15:43:17;31.50;71.30
29709;DHT22;16621;47.158;7.592;2022-08-05T15:46:14;31.50;68.80
29709;DHT22;16621;47.158;7.592;2022-08-05T15:49:04;31.40;67.10
29709;DHT22;16621;47.158;7.592;2022-08-05T15:51:52;31.40;65.90
29709;DHT22;16621;47.158;7.592;2022-08-05T15:54:43;31.40;67.20
29709;DHT22;16621;47.158;7.592;2022-08-05T15:57:28;31.30;67.70
29709;DHT22;16621;47.158;7.592;2022-08-05T16:00:15;31.30;68.50
29709;DHT22;16621;47.158;7.592;2022-08-05T16:03:02;31.20;67.90
29709;DHT22;16621;47.158;7.592;2022-08-05T16:05:48;31.10;70.80
29709;DHT22;16621;47.158;7.592;2022-08-05T16:08:33;30.90;70.40
29709;DHT22;16621;47.158;7.592;2022-08-05T16:11:19;30.90;71.40
29709;DHT22;16621;47.158;7.592;2022-08-05T16:14:04;30.80;71.60
29709;DHT22;16621;47.158;7.592;2022-08-05T16:16:52;30.70;71.60
29709;DHT22;16621;47.158;7.592;2022-08-05T16:19:40;30.60;74.30
29709;DHT22;16621;47.158;7.592;2022-08-05T16:22:24;30.50;73.40
29709;DHT22;16621;47.158;7.592;2022-08-05T16:25:12;30.40;75.40
29709;DHT22;16621;47.158;7.592;2022-08-05T16:28:01;30.40;72.20
29709;DHT22;16621;47.158;7.592;2022-08-05T16:30:47;30.30;74.00
29709;DHT22;16621;47.158;7.592;2022-08-05T16:33:30;30.30;72.50
29709;DHT22;16621;47.158;7.592;2022-08-05T16:36:19;30.30;77.40
29709;DHT22;16621;47.158;7.592;2022-08-05T16:38:58;30.30;75.30
29709;DHT22;16621;47.158;7.592;2022-08-05T16:41:43;30.20;75.60
29709;DHT22;16621;47.158;7.592;2022-08-05T16:44:27;30.20;73.70
29709;DHT22;16621;47.158;7.592;2022-08-05T16:47:14;30.20;75.30
29709;DHT22;16621;47.158;7.592;2022-08-05T16:49:57;30.10;70.20
29709;DHT22;16621;47.158;7.592;2022-08-05T16:52:38;30.00;71.60
29709;DHT22;16621;47.158;7.592;2022-08-05T16:55:24;29.90;72.40
29709;DHT22;16621;47.158;7.592;2022-08-05T16:58:11;29.90;70.10
29709;DHT22;16621;47.158;7.592;2022-08-05T17:00:57;29.80;73.10
29709;DHT22;16621;47.158;7.592;2022-08-05T17:03:38;29.70;71.50
29709;DHT22;16621;47.158;7.592;2022-08-05T17:06:28;29.60;73.90
29709;DHT22;16621;47.158;7.592;2022-08-05T17:09:06;29.50;71.80
29709;DHT22;16621;47.158;7.592;2022-08-05T17:11:52;29.40;68.50
29709;DHT22;16621;47.158;7.592;2022-08-05T17:14:34;29.40;73.70
29709;DHT22;16621;47.158;7.592;2022-08-05T17:17:29;29.30;70.40
29709;DHT22;16621;47.158;7.592;2022-08-05T17:20:43;29.30;70.70
29709;DHT22;16621;47.158;7.592;2022-08-05T17:23:33;29.10;72.50
29709;DHT22;16621;47.158;7.592;2022-08-05T17:26:23;29.10;72.20
29709;DHT22;16621;47.158;7.592;2022-08-05T17:29:11;29.00;70.30
29709;DHT22;16621;47.158;7.592;2022-08-05T17:32:01;28.90;71.00
29709;DHT22;16621;47.158;7.592;2022-08-05T17:34:50;28.90;70.20
29709;DHT22;16621;47.158;7.592;2022-08-05T17:37:42;28.90;69.90
29709;DHT22;16621;47.158;7.592;2022-08-05T17:40:41;28.80;69.10
29709;DHT22;16621;47.158;7.592;2022-08-05T17:43:25;28.80;68.80
29709;DHT22;16621;47.158;7.592;2022-08-05T17:46:09;28.30;76.60
29709;DHT22;16621;47.158;7.592;2022-08-05T17:49:10;27.40;80.80
29709;DHT22;16621;47.158;7.592;2022-08-05T17:51:58;26.80;83.90